Terminal Aerodrome Forecast
Issued by NWS Lake Charles, LA

Home | Current Version | Previous Version | Text Only | Print | Product List | Glossary On
Versions: 1 2 3 4 5 6 7 8 9 10 11 12 13
000
FTUS44 KLCH 031120
TAFBPT
TAF
KBPT 031120Z 0312/0412 00000KT P6SM SKC
      TEMPO 0312/0313 3SM BR
     FM031500 18011KT P6SM SCT040
     FM040000 15005KT P6SM SKC=

USA.gov is the U.S. government's official web portal to all federal, state and local government web resources and services.